sensor_id;sensor_type;location;lat;lon;timestamp;noise_LAeq;noise_LA_min;noise_LA_max;noise_LA01;noise_LA95
77729;Laerm;68312;53.502;10.030;2023-04-25T00:01:16;44.88;41.43;58.46;;
77729;Laerm;68312;53.502;10.030;2023-04-25T00:03:41;45.75;39.11;60.92;;
77729;Laerm;68312;53.502;10.030;2023-04-25T00:06:07;45.38;39.90;61.21;;
77729;Laerm;68312;53.502;10.030;2023-04-25T00:08:32;42.92;38.08;60.28;;
77729;Laerm;68312;53.502;10.030;2023-04-25T00:10:59;43.07;38.85;56.85;;
77729;Laerm;68312;53.502;10.030;2023-04-25T00:13:26;43.43;39.69;55.67;;
77729;Laerm;68312;53.502;10.030;2023-04-25T00:15:52;42.75;38.86;51.01;;
77729;Laerm;68312;53.502;10.030;2023-04-25T00:18:19;44.65;39.17;57.12;;
77729;Laerm;68312;53.502;10.030;2023-04-25T00:20:44;43.57;39.18;59.36;;
77729;Laerm;68312;53.502;10.030;2023-04-25T00:23:10;48.04;43.46;57.64;;
77729;Laerm;68312;53.502;10.030;2023-04-25T00:25:35;50.88;43.41;63.61;;
77729;Laerm;68312;53.502;10.030;2023-04-25T00:28:01;45.96;40.08;56.80;;
77729;Laerm;68312;53.502;10.030;2023-04-25T00:30:26;42.03;38.41;59.18;;
77729;Laerm;68312;53.502;10.030;2023-04-25T00:32:52;42.37;38.03;59.55;;
77729;Laerm;68312;53.502;10.030;2023-04-25T00:35:17;44.76;39.40;59.75;;
77729;Laerm;68312;53.502;10.030;2023-04-25T00:37:43;40.99;37.37;60.80;;
77729;Laerm;68312;53.502;10.030;2023-04-25T00:40:09;39.67;35.73;51.71;;
77729;Laerm;68312;53.502;10.030;2023-04-25T00:42:35;40.20;36.37;53.30;;
77729;Laerm;68312;53.502;10.030;2023-04-25T00:45:01;40.44;36.06;53.37;;
77729;Laerm;68312;53.502;10.030;2023-04-25T00:47:28;41.51;36.39;54.78;;
77729;Laerm;68312;53.502;10.030;2023-04-25T00:49:54;41.81;36.92;51.40;;
77729;Laerm;68312;53.502;10.030;2023-04-25T00:52:20;40.68;36.97;50.59;;
77729;Laerm;68312;53.502;10.030;2023-04-25T00:54:45;42.59;36.37;60.17;;
77729;Laerm;68312;53.502;10.030;2023-04-25T00:57:11;41.60;36.75;58.55;;
77729;Laerm;68312;53.502;10.030;2023-04-25T00:59:37;40.58;36.78;46.71;;
77729;Laerm;68312;53.502;10.030;2023-04-25T01:02:04;44.51;37.65;62.88;;
77729;Laerm;68312;53.502;10.030;2023-04-25T01:04:30;45.71;37.18;67.11;;
77729;Laerm;68312;53.502;10.030;2023-04-25T01:06:56;41.28;36.46;56.94;;
77729;Laerm;68312;53.502;10.030;2023-04-25T01:09:22;40.33;35.51;47.99;;
77729;Laerm;68312;53.502;10.030;2023-04-25T01:11:49;41.55;36.88;49.94;;
77729;Laerm;68312;53.502;10.030;2023-04-25T01:14:14;42.49;39.46;50.41;;
77729;Laerm;68312;53.502;10.030;2023-04-25T01:16:40;44.48;39.68;63.77;;
77729;Laerm;68312;53.502;10.030;2023-04-25T01:19:10;45.08;38.43;55.81;;
77729;Laerm;68312;53.502;10.030;2023-04-25T01:21:35;42.75;37.54;52.93;;
77729;Laerm;68312;53.502;10.030;2023-04-25T01:24:02;41.30;37.30;51.10;;
77729;Laerm;68312;53.502;10.030;2023-04-25T01:26:27;41.81;37.67;49.17;;
77729;Laerm;68312;53.502;10.030;2023-04-25T01:28:53;39.89;36.98;48.25;;
77729;Laerm;68312;53.502;10.030;2023-04-25T01:31:19;41.23;36.70;58.54;;
77729;Laerm;68312;53.502;10.030;2023-04-25T01:33:46;40.01;36.90;46.97;;
77729;Laerm;68312;53.502;10.030;2023-04-25T01:36:13;40.37;37.44;45.91;;
77729;Laerm;68312;53.502;10.030;2023-04-25T01:38:39;45.78;38.93;63.35;;
77729;Laerm;68312;53.502;10.030;2023-04-25T01:41:05;45.61;36.99;63.36;;
77729;Laerm;68312;53.502;10.030;2023-04-25T01:43:31;42.92;37.60;55.06;;
77729;Laerm;68312;53.502;10.030;2023-04-25T01:45:57;43.62;38.26;58.55;;
77729;Laerm;68312;53.502;10.030;2023-04-25T01:48:22;43.21;38.07;59.57;;
77729;Laerm;68312;53.502;10.030;2023-04-25T01:50:48;41.91;37.30;48.73;;
77729;Laerm;68312;53.502;10.030;2023-04-25T01:53:14;41.38;37.67;51.40;;
77729;Laerm;68312;53.502;10.030;2023-04-25T01:55:40;44.47;37.50;61.71;;
77729;Laerm;68312;53.502;10.030;2023-04-25T01:58:05;44.84;36.96;63.00;;
77729;Laerm;68312;53.502;10.030;2023-04-25T02:00:30;40.15;36.96;45.57;;
77729;Laerm;68312;53.502;10.030;2023-04-25T02:02:59;41.17;37.53;48.80;;
77729;Laerm;68312;53.502;10.030;2023-04-25T02:05:24;39.00;36.02;44.43;;
77729;Laerm;68312;53.502;10.030;2023-04-25T02:07:50;40.92;37.00;52.04;;
77729;Laerm;68312;53.502;10.030;2023-04-25T02:10:15;40.97;37.16;50.78;;
77729;Laerm;68312;53.502;10.030;2023-04-25T02:12:41;43.16;37.17;58.64;;
77729;Laerm;68312;53.502;10.030;2023-04-25T02:15:07;43.62;38.25;54.97;;
77729;Laerm;68312;53.502;10.030;2023-04-25T02:17:32;43.85;37.53;54.76;;
77729;Laerm;68312;53.502;10.030;2023-04-25T02:19:58;41.48;38.13;46.59;;
77729;Laerm;68312;53.502;10.030;2023-04-25T02:22:23;42.23;37.87;48.72;;
77729;Laerm;68312;53.502;10.030;2023-04-25T02:24:49;42.03;38.60;49.48;;
77729;Laerm;68312;53.502;10.030;2023-04-25T02:27:15;40.25;36.91;46.86;;
77729;Laerm;68312;53.502;10.030;2023-04-25T02:29:40;44.71;38.03;59.40;;
77729;Laerm;68312;53.502;10.030;2023-04-25T02:32:05;42.68;37.97;58.31;;
77729;Laerm;68312;53.502;10.030;2023-04-25T02:34:31;41.66;38.08;60.17;;
77729;Laerm;68312;53.502;10.030;2023-04-25T02:36:56;42.24;37.31;57.11;;
77729;Laerm;68312;53.502;10.030;2023-04-25T02:39:22;41.79;37.59;58.37;;
77729;Laerm;68312;53.502;10.030;2023-04-25T02:41:47;41.63;37.35;47.53;;
77729;Laerm;68312;53.502;10.030;2023-04-25T02:44:13;43.44;38.27;56.34;;
77729;Laerm;68312;53.502;10.030;2023-04-25T02:46:38;45.43;39.24;54.31;;
77729;Laerm;68312;53.502;10.030;2023-04-25T02:49:04;43.91;39.16;56.49;;
77729;Laerm;68312;53.502;10.030;2023-04-25T02:51:29;44.82;39.53;54.74;;
77729;Laerm;68312;53.502;10.030;2023-04-25T02:53:54;43.77;38.84;58.64;;
77729;Laerm;68312;53.502;10.030;2023-04-25T02:56:20;41.76;38.42;46.82;;
77729;Laerm;68312;53.502;10.030;2023-04-25T02:58:45;42.64;38.21;52.95;;
77729;Laerm;68312;53.502;10.030;2023-04-25T03:01:11;43.52;39.03;52.17;;
77729;Laerm;68312;53.502;10.030;2023-04-25T03:03:36;44.01;39.54;52.16;;
77729;Laerm;68312;53.502;10.030;2023-04-25T03:06:02;47.74;41.37;60.64;;
77729;Laerm;68312;53.502;10.030;2023-04-25T03:08:27;44.14;40.81;49.52;;
77729;Laerm;68312;53.502;10.030;2023-04-25T03:10:53;44.74;39.93;53.51;;
77729;Laerm;68312;53.502;10.030;2023-04-25T03:13:18;45.82;41.29;55.95;;
77729;Laerm;68312;53.502;10.030;2023-04-25T03:15:44;48.29;41.39;68.42;;
77729;Laerm;68312;53.502;10.030;2023-04-25T03:18:09;47.47;42.43;60.62;;
77729;Laerm;68312;53.502;10.030;2023-04-25T03:20:35;48.83;42.13;59.33;;
77729;Laerm;68312;53.502;10.030;2023-04-25T03:23:00;48.91;43.59;58.30;;
77729;Laerm;68312;53.502;10.030;2023-04-25T03:25:26;46.37;41.93;55.21;;
77729;Laerm;68312;53.502;10.030;2023-04-25T03:27:51;45.51;40.90;54.43;;
77729;Laerm;68312;53.502;10.030;2023-04-25T03:30:17;47.35;42.03;56.42;;
77729;Laerm;68312;53.502;10.030;2023-04-25T03:32:42;46.64;41.65;59.44;;
77729;Laerm;68312;53.502;10.030;2023-04-25T03:35:08;46.43;42.00;55.58;;
77729;Laerm;68312;53.502;10.030;2023-04-25T03:37:34;50.12;42.63;66.02;;
77729;Laerm;68312;53.502;10.030;2023-04-25T03:39:59;46.26;42.04;57.72;;
77729;Laerm;68312;53.502;10.030;2023-04-25T03:42:24;46.78;42.65;55.52;;
77729;Laerm;68312;53.502;10.030;2023-04-25T03:44:51;46.27;42.02;56.57;;
77729;Laerm;68312;53.502;10.030;2023-04-25T03:47:17;48.14;41.59;58.60;;
77729;Laerm;68312;53.502;10.030;2023-04-25T03:49:42;47.23;42.70;59.77;;
77729;Laerm;68312;53.502;10.030;2023-04-25T03:52:08;47.75;42.76;59.05;;
77729;Laerm;68312;53.502;10.030;2023-04-25T03:54:33;45.67;42.08;51.33;;
77729;Laerm;68312;53.502;10.030;2023-04-25T03:56:59;46.49;42.69;56.69;;
77729;Laerm;68312;53.502;10.030;2023-04-25T03:59:24;46.49;42.23;55.75;;
77729;Laerm;68312;53.502;10.030;2023-04-25T04:01:50;47.35;41.88;58.42;;
77729;Laerm;68312;53.502;10.030;2023-04-25T04:04:15;46.93;42.27;56.38;;
77729;Laerm;68312;53.502;10.030;2023-04-25T04:06:40;45.75;42.39;56.12;;
77729;Laerm;68312;53.502;10.030;2023-04-25T04:09:06;48.61;42.88;63.51;;
77729;Laerm;68312;53.502;10.030;2023-04-25T04:11:31;47.70;42.03;58.45;;
77729;Laerm;68312;53.502;10.030;2023-04-25T04:13:57;46.98;42.35;60.34;;
77729;Laerm;68312;53.502;10.030;2023-04-25T04:16:22;48.10;42.15;70.27;;
77729;Laerm;68312;53.502;10.030;2023-04-25T04:18:48;47.58;42.76;58.75;;
77729;Laerm;68312;53.502;10.030;2023-04-25T04:21:13;48.04;43.20;64.76;;
77729;Laerm;68312;53.502;10.030;2023-04-25T04:23:39;50.53;42.36;68.02;;
77729;Laerm;68312;53.502;10.030;2023-04-25T04:26:04;47.58;42.01;58.54;;
77729;Laerm;68312;53.502;10.030;2023-04-25T04:28:30;46.99;41.59;57.75;;
77729;Laerm;68312;53.502;10.030;2023-04-25T04:30:55;45.98;42.53;59.03;;
77729;Laerm;68312;53.502;10.030;2023-04-25T04:33:21;51.20;42.89;67.58;;
77729;Laerm;68312;53.502;10.030;2023-04-25T04:35:47;57.09;43.52;71.69;;
77729;Laerm;68312;53.502;10.030;2023-04-25T04:38:13;48.42;43.12;62.47;;
77729;Laerm;68312;53.502;10.030;2023-04-25T04:40:39;50.79;42.28;67.79;;
77729;Laerm;68312;53.502;10.030;2023-04-25T04:43:04;47.65;41.90;71.01;;
77729;Laerm;68312;53.502;10.030;2023-04-25T04:45:29;48.65;43.29;60.52;;
77729;Laerm;68312;53.502;10.030;2023-04-25T04:47:55;46.98;42.29;66.16;;
77729;Laerm;68312;53.502;10.030;2023-04-25T04:50:21;46.89;41.64;60.34;;
77729;Laerm;68312;53.502;10.030;2023-04-25T04:52:46;48.24;43.20;59.01;;
77729;Laerm;68312;53.502;10.030;2023-04-25T04:55:12;46.28;42.40;65.45;;
77729;Laerm;68312;53.502;10.030;2023-04-25T04:57:37;48.21;42.76;60.46;;
77729;Laerm;68312;53.502;10.030;2023-04-25T05:00:05;45.99;42.48;53.59;;
77729;Laerm;68312;53.502;10.030;2023-04-25T05:02:31;47.22;42.89;60.70;;
77729;Laerm;68312;53.502;10.030;2023-04-25T05:04:56;54.65;42.77;67.92;;
77729;Laerm;68312;53.502;10.030;2023-04-25T05:07:22;49.99;42.30;66.28;;
77729;Laerm;68312;53.502;10.030;2023-04-25T05:09:47;46.73;41.53;61.18;;
77729;Laerm;68312;53.502;10.030;2023-04-25T05:12:13;49.39;43.00;63.68;;
77729;Laerm;68312;53.502;10.030;2023-04-25T05:14:38;46.30;42.45;63.52;;
77729;Laerm;68312;53.502;10.030;2023-04-25T05:17:04;50.68;42.80;64.74;;
77729;Laerm;68312;53.502;10.030;2023-04-25T05:19:29;45.77;41.83;54.06;;
77729;Laerm;68312;53.502;10.030;2023-04-25T05:21:54;45.70;41.94;58.05;;
77729;Laerm;68312;53.502;10.030;2023-04-25T05:24:20;47.29;42.59;58.31;;
77729;Laerm;68312;53.502;10.030;2023-04-25T05:26:45;48.41;42.97;63.83;;
77729;Laerm;68312;53.502;10.030;2023-04-25T05:29:11;51.25;42.69;67.53;;
77729;Laerm;68312;53.502;10.030;2023-04-25T05:31:36;47.18;42.14;67.59;;
77729;Laerm;68312;53.502;10.030;2023-04-25T05:34:02;72.30;43.45;100.80;;
77729;Laerm;68312;53.502;10.030;2023-04-25T05:36:28;68.02;43.85;101.39;;
77729;Laerm;68312;53.502;10.030;2023-04-25T05:38:53;50.23;44.15;65.29;;
77729;Laerm;68312;53.502;10.030;2023-04-25T05:41:19;51.20;44.33;67.07;;
77729;Laerm;68312;53.502;10.030;2023-04-25T05:43:44;50.51;42.49;65.87;;
77729;Laerm;68312;53.502;10.030;2023-04-25T05:46:10;51.25;43.01;65.04;;
77729;Laerm;68312;53.502;10.030;2023-04-25T05:48:37;49.77;42.20;67.98;;
77729;Laerm;68312;53.502;10.030;2023-04-25T05:51:03;57.32;43.20;75.52;;
77729;Laerm;68312;53.502;10.030;2023-04-25T05:53:29;50.09;42.53;68.54;;
77729;Laerm;68312;53.502;10.030;2023-04-25T05:55:54;46.98;42.93;58.51;;
77729;Laerm;68312;53.502;10.030;2023-04-25T05:58:20;46.91;43.03;56.48;;
77729;Laerm;68312;53.502;10.030;2023-04-25T06:00:45;46.62;43.26;63.18;;
77729;Laerm;68312;53.502;10.030;2023-04-25T06:03:11;51.31;42.97;75.23;;
77729;Laerm;68312;53.502;10.030;2023-04-25T06:05:36;49.31;41.85;63.42;;
77729;Laerm;68312;53.502;10.030;2023-04-25T06:08:02;49.35;41.84;63.95;;
77729;Laerm;68312;53.502;10.030;2023-04-25T06:10:28;55.05;41.92;76.04;;
77729;Laerm;68312;53.502;10.030;2023-04-25T06:12:53;48.96;42.86;66.15;;
77729;Laerm;68312;53.502;10.030;2023-04-25T06:15:19;49.95;43.42;63.27;;
77729;Laerm;68312;53.502;10.030;2023-04-25T06:17:44;53.80;41.15;75.49;;
77729;Laerm;68312;53.502;10.030;2023-04-25T06:20:10;55.66;41.19;80.53;;
77729;Laerm;68312;53.502;10.030;2023-04-25T06:22:36;50.35;44.39;62.11;;
77729;Laerm;68312;53.502;10.030;2023-04-25T06:25:01;52.48;46.62;58.40;;
77729;Laerm;68312;53.502;10.030;2023-04-25T06:27:27;47.16;43.88;57.49;;
77729;Laerm;68312;53.502;10.030;2023-04-25T06:29:52;49.21;43.78;63.11;;
77729;Laerm;68312;53.502;10.030;2023-04-25T06:32:18;48.73;44.74;57.86;;
77729;Laerm;68312;53.502;10.030;2023-04-25T06:34:43;51.22;44.64;67.43;;
77729;Laerm;68312;53.502;10.030;2023-04-25T06:37:09;51.97;45.88;65.33;;
77729;Laerm;68312;53.502;10.030;2023-04-25T06:39:34;52.69;45.81;62.73;;
77729;Laerm;68312;53.502;10.030;2023-04-25T06:42:00;51.94;46.50;70.43;;
77729;Laerm;68312;53.502;10.030;2023-04-25T06:44:25;56.03;45.36;72.32;;
77729;Laerm;68312;53.502;10.030;2023-04-25T06:46:51;52.98;45.98;71.59;;
77729;Laerm;68312;53.502;10.030;2023-04-25T06:49:17;54.14;46.72;69.35;;
77729;Laerm;68312;53.502;10.030;2023-04-25T06:51:42;48.74;43.94;60.17;;
77729;Laerm;68312;53.502;10.030;2023-04-25T06:54:08;48.40;44.78;58.12;;
77729;Laerm;68312;53.502;10.030;2023-04-25T06:56:33;48.63;44.94;61.89;;
77729;Laerm;68312;53.502;10.030;2023-04-25T06:58:59;47.67;43.21;56.07;;
77729;Laerm;68312;53.502;10.030;2023-04-25T07:01:24;47.75;42.14;66.79;;
77729;Laerm;68312;53.502;10.030;2023-04-25T07:03:50;48.20;43.57;63.80;;
77729;Laerm;68312;53.502;10.030;2023-04-25T07:06:15;48.85;44.12;63.20;;
77729;Laerm;68312;53.502;10.030;2023-04-25T07:08:41;47.83;43.18;55.66;;
77729;Laerm;68312;53.502;10.030;2023-04-25T07:11:06;50.59;43.26;72.65;;
77729;Laerm;68312;53.502;10.030;2023-04-25T07:13:31;54.98;44.63;72.28;;
77729;Laerm;68312;53.502;10.030;2023-04-25T07:15:57;52.37;44.10;69.80;;
77729;Laerm;68312;53.502;10.030;2023-04-25T07:18:22;48.70;42.75;58.85;;
77729;Laerm;68312;53.502;10.030;2023-04-25T07:20:48;47.87;42.72;60.62;;
77729;Laerm;68312;53.502;10.030;2023-04-25T07:23:13;49.25;42.75;64.86;;
77729;Laerm;68312;53.502;10.030;2023-04-25T07:25:39;50.05;43.68;65.05;;
77729;Laerm;68312;53.502;10.030;2023-04-25T07:28:04;50.07;44.11;68.21;;
77729;Laerm;68312;53.502;10.030;2023-04-25T07:30:30;49.93;43.65;64.35;;
77729;Laerm;68312;53.502;10.030;2023-04-25T07:32:56;51.67;43.90;68.86;;
77729;Laerm;68312;53.502;10.030;2023-04-25T07:35:22;47.91;43.10;60.97;;
77729;Laerm;68312;53.502;10.030;2023-04-25T07:37:47;47.71;43.61;59.21;;
77729;Laerm;68312;53.502;10.030;2023-04-25T07:40:13;51.93;42.89;76.45;;
77729;Laerm;68312;53.502;10.030;2023-04-25T07:42:38;48.93;43.92;66.59;;
77729;Laerm;68312;53.502;10.030;2023-04-25T07:45:05;49.17;44.22;63.76;;
77729;Laerm;68312;53.502;10.030;2023-04-25T07:47:30;51.72;44.29;70.81;;
77729;Laerm;68312;53.502;10.030;2023-04-25T07:49:56;52.76;43.91;69.58;;
77729;Laerm;68312;53.502;10.030;2023-04-25T07:52:21;46.80;43.49;59.33;;
77729;Laerm;68312;53.502;10.030;2023-04-25T07:54:47;47.98;43.36;60.64;;
77729;Laerm;68312;53.502;10.030;2023-04-25T07:57:12;48.36;44.53;57.92;;
77729;Laerm;68312;53.502;10.030;2023-04-25T07:59:38;50.09;44.58;63.90;;
77729;Laerm;68312;53.502;10.030;2023-04-25T08:02:03;56.41;44.27;73.05;;
77729;Laerm;68312;53.502;10.030;2023-04-25T08:04:29;50.39;44.55;64.68;;
77729;Laerm;68312;53.502;10.030;2023-04-25T08:06:54;49.68;44.85;60.71;;
77729;Laerm;68312;53.502;10.030;2023-04-25T08:09:20;51.77;45.38;68.35;;
77729;Laerm;68312;53.502;10.030;2023-04-25T08:11:46;46.89;41.64;59.33;;
77729;Laerm;68312;53.502;10.030;2023-04-25T08:14:13;49.77;42.89;66.39;;
77729;Laerm;68312;53.502;10.030;2023-04-25T08:16:38;51.40;43.60;67.41;;
77729;Laerm;68312;53.502;10.030;2023-04-25T08:19:04;47.16;41.07;60.57;;
77729;Laerm;68312;53.502;10.030;2023-04-25T08:21:29;51.78;44.12;73.09;;
77729;Laerm;68312;53.502;10.030;2023-04-25T08:23:55;51.52;42.04;70.24;;
77729;Laerm;68312;53.502;10.030;2023-04-25T08:26:20;48.89;41.99;71.03;;
77729;Laerm;68312;53.502;10.030;2023-04-25T08:28:46;77.62;45.27;107.21;;
77729;Laerm;68312;53.502;10.030;2023-04-25T08:31:12;48.43;41.99;63.61;;
77729;Laerm;68312;53.502;10.030;2023-04-25T08:33:37;49.21;44.82;67.03;;
77729;Laerm;68312;53.502;10.030;2023-04-25T08:36:03;50.62;44.59;64.01;;
77729;Laerm;68312;53.502;10.030;2023-04-25T08:38:29;51.65;45.69;66.49;;
77729;Laerm;68312;53.502;10.030;2023-04-25T08:40:56;51.07;46.03;64.88;;
77729;Laerm;68312;53.502;10.030;2023-04-25T08:43:23;53.61;46.60;63.67;;
77729;Laerm;68312;53.502;10.030;2023-04-25T08:45:53;51.02;45.75;62.55;;
77729;Laerm;68312;53.502;10.030;2023-04-25T08:48:18;49.11;44.67;64.45;;
77729;Laerm;68312;53.502;10.030;2023-04-25T08:50:55;50.24;44.14;62.33;;
77729;Laerm;68312;53.502;10.030;2023-04-25T08:53:27;50.53;45.37;66.45;;
77729;Laerm;68312;53.502;10.030;2023-04-25T08:56:00;55.14;45.48;64.92;;
77729;Laerm;68312;53.502;10.030;2023-04-25T08:58:28;54.25;44.86;68.00;;
77729;Laerm;68312;53.502;10.030;2023-04-25T09:00:54;52.02;43.81;68.81;;
77729;Laerm;68312;53.502;10.030;2023-04-25T09:03:19;49.99;43.71;62.84;;
77729;Laerm;68312;53.502;10.030;2023-04-25T09:05:45;49.77;44.58;61.95;;
77729;Laerm;68312;53.502;10.030;2023-04-25T09:08:11;54.87;45.57;68.99;;
77729;Laerm;68312;53.502;10.030;2023-04-25T09:10:38;50.87;47.00;70.18;;
77729;Laerm;68312;53.502;10.030;2023-04-25T09:13:17;53.13;46.78;64.22;;
77729;Laerm;68312;53.502;10.030;2023-04-25T09:15:55;50.33;44.59;58.87;;
77729;Laerm;68312;53.502;10.030;2023-04-25T09:18:26;49.59;44.24;62.29;;
77729;Laerm;68312;53.502;10.030;2023-04-25T09:21:07;51.40;45.05;63.79;;
77729;Laerm;68312;53.502;10.030;2023-04-25T09:24:00;52.95;45.99;68.79;;
77729;Laerm;68312;53.502;10.030;2023-04-25T09:26:26;50.42;44.24;66.06;;
77729;Laerm;68312;53.502;10.030;2023-04-25T09:29:06;50.12;43.19;73.98;;
77729;Laerm;68312;53.502;10.030;2023-04-25T09:31:33;51.14;44.88;72.94;;
77729;Laerm;68312;53.502;10.030;2023-04-25T09:34:00;53.39;44.90;64.93;;
77729;Laerm;68312;53.502;10.030;2023-04-25T09:36:27;50.26;44.61;67.57;;
77729;Laerm;68312;53.502;10.030;2023-04-25T09:38:53;51.71;43.48;65.61;;
77729;Laerm;68312;53.502;10.030;2023-04-25T09:41:24;49.71;42.43;64.59;;
77729;Laerm;68312;53.502;10.030;2023-04-25T09:43:50;49.00;42.40;68.47;;
77729;Laerm;68312;53.502;10.030;2023-04-25T09:46:16;48.38;43.27;65.14;;
77729;Laerm;68312;53.502;10.030;2023-04-25T09:48:49;49.67;44.29;66.72;;
77729;Laerm;68312;53.502;10.030;2023-04-25T09:51:15;53.53;46.19;64.69;;
77729;Laerm;68312;53.502;10.030;2023-04-25T09:53:47;50.54;44.79;62.15;;
77729;Laerm;68312;53.502;10.030;2023-04-25T09:56:13;50.52;46.46;66.01;;
77729;Laerm;68312;53.502;10.030;2023-04-25T09:58:40;50.67;46.38;60.49;;
77729;Laerm;68312;53.502;10.030;2023-04-25T10:01:10;53.54;46.22;69.04;;
77729;Laerm;68312;53.502;10.030;2023-04-25T10:03:39;51.17;45.15;65.50;;
77729;Laerm;68312;53.502;10.030;2023-04-25T10:06:12;49.95;43.14;60.41;;
77729;Laerm;68312;53.502;10.030;2023-04-25T10:08:40;49.14;44.97;57.31;;
77729;Laerm;68312;53.502;10.030;2023-04-25T10:11:08;52.89;45.45;70.51;;
77729;Laerm;68312;53.502;10.030;2023-04-25T10:13:36;50.95;44.43;71.04;;
77729;Laerm;68312;53.502;10.030;2023-04-25T10:16:05;50.90;46.70;60.03;;
77729;Laerm;68312;53.502;10.030;2023-04-25T10:18:32;51.33;46.85;62.69;;
77729;Laerm;68312;53.502;10.030;2023-04-25T10:21:04;53.74;47.12;69.67;;
77729;Laerm;68312;53.502;10.030;2023-04-25T10:23:32;52.44;48.05;65.16;;
77729;Laerm;68312;53.502;10.030;2023-04-25T10:25:59;50.85;45.94;60.82;;
77729;Laerm;68312;53.502;10.030;2023-04-25T10:28:25;53.69;46.12;67.57;;
77729;Laerm;68312;53.502;10.030;2023-04-25T10:31:07;55.44;47.65;72.84;;
77729;Laerm;68312;53.502;10.030;2023-04-25T10:33:42;55.44;46.27;67.81;;
77729;Laerm;68312;53.502;10.030;2023-04-25T10:36:18;56.04;43.11;74.55;;
77729;Laerm;68312;53.502;10.030;2023-04-25T10:38:45;56.02;45.23;70.35;;
77729;Laerm;68312;53.502;10.030;2023-04-25T10:41:13;55.53;46.73;74.78;;
77729;Laerm;68312;53.502;10.030;2023-04-25T10:43:46;50.41;43.93;68.32;;
77729;Laerm;68312;53.502;10.030;2023-04-25T10:46:26;53.27;44.52;68.77;;
77729;Laerm;68312;53.502;10.030;2023-04-25T10:48:57;49.98;46.33;65.36;;
77729;Laerm;68312;53.502;10.030;2023-04-25T10:51:26;53.87;45.75;71.56;;
77729;Laerm;68312;53.502;10.030;2023-04-25T10:54:07;55.42;45.98;73.43;;
77729;Laerm;68312;53.502;10.030;2023-04-25T11:01:51;51.34;43.05;66.86;;
77729;Laerm;68312;53.502;10.030;2023-04-25T11:04:33;50.18;44.44;60.23;;
77729;Laerm;68312;53.502;10.030;2023-04-25T11:07:25;49.96;44.55;62.19;;
77729;Laerm;68312;53.502;10.030;2023-04-25T11:09:54;55.08;45.10;76.18;;
77729;Laerm;68312;53.502;10.030;2023-04-25T11:12:19;77.93;45.86;102.44;;
77729;Laerm;68312;53.502;10.030;2023-04-25T11:14:45;52.02;43.80;74.26;;
77729;Laerm;68312;53.502;10.030;2023-04-25T11:17:10;49.16;42.14;58.71;;
77729;Laerm;68312;53.502;10.030;2023-04-25T11:19:36;48.18;42.49;72.25;;
77729;Laerm;68312;53.502;10.030;2023-04-25T11:22:03;47.37;42.43;60.30;;
77729;Laerm;68312;53.502;10.030;2023-04-25T11:24:32;46.46;41.55;60.45;;
77729;Laerm;68312;53.502;10.030;2023-04-25T11:27:02;50.21;44.37;61.94;;
77729;Laerm;68312;53.502;10.030;2023-04-25T11:29:34;51.54;44.14;65.65;;
77729;Laerm;68312;53.502;10.030;2023-04-25T11:32:01;50.57;44.16;60.85;;
77729;Laerm;68312;53.502;10.030;2023-04-25T11:34:29;50.68;45.01;65.26;;
77729;Laerm;68312;53.502;10.030;2023-04-25T11:36:54;50.82;42.81;66.05;;
77729;Laerm;68312;53.502;10.030;2023-04-25T11:39:20;46.79;43.03;56.23;;
77729;Laerm;68312;53.502;10.030;2023-04-25T11:41:47;52.44;44.96;67.35;;
77729;Laerm;68312;53.502;10.030;2023-04-25T11:44:17;56.17;48.79;71.56;;
77729;Laerm;68312;53.502;10.030;2023-04-25T11:46:44;55.56;47.07;69.99;;
77729;Laerm;68312;53.502;10.030;2023-04-25T11:49:10;53.22;45.49;69.00;;
77729;Laerm;68312;53.502;10.030;2023-04-25T11:51:40;52.37;44.86;68.19;;
77729;Laerm;68312;53.502;10.030;2023-04-25T11:54:06;51.85;43.87;64.73;;
77729;Laerm;68312;53.502;10.030;2023-04-25T11:56:32;46.99;42.90;57.78;;
77729;Laerm;68312;53.502;10.030;2023-04-25T11:59:05;53.11;45.66;66.35;;
77729;Laerm;68312;53.502;10.030;2023-04-25T12:01:34;52.04;44.87;70.95;;
77729;Laerm;68312;53.502;10.030;2023-04-25T12:04:24;50.65;46.83;61.40;;
77729;Laerm;68312;53.502;10.030;2023-04-25T12:06:53;55.45;46.59;79.01;;
77729;Laerm;68312;53.502;10.030;2023-04-25T12:09:29;55.28;48.88;68.94;;
77729;Laerm;68312;53.502;10.030;2023-04-25T12:11:58;54.07;48.98;64.69;;
77729;Laerm;68312;53.502;10.030;2023-04-25T12:14:33;54.95;48.56;66.06;;
77729;Laerm;68312;53.502;10.030;2023-04-25T12:17:03;54.60;49.70;66.04;;
77729;Laerm;68312;53.502;10.030;2023-04-25T12:19:38;73.95;48.62;107.95;;
77729;Laerm;68312;53.502;10.030;2023-04-25T12:22:20;71.03;47.19;101.95;;
77729;Laerm;68312;53.502;10.030;2023-04-25T12:24:46;78.69;51.02;106.26;;
77729;Laerm;68312;53.502;10.030;2023-04-25T12:27:16;69.42;50.40;101.62;;
77729;Laerm;68312;53.502;10.030;2023-04-25T12:29:53;56.36;51.00;69.40;;
77729;Laerm;68312;53.502;10.030;2023-04-25T12:32:19;55.82;45.99;71.98;;
77729;Laerm;68312;53.502;10.030;2023-04-25T12:34:44;54.00;47.35;62.49;;
77729;Laerm;68312;53.502;10.030;2023-04-25T12:37:10;53.39;45.44;70.73;;
77729;Laerm;68312;53.502;10.030;2023-04-25T12:39:36;55.12;47.89;64.86;;
77729;Laerm;68312;53.502;10.030;2023-04-25T12:42:01;51.60;45.60;66.96;;
77729;Laerm;68312;53.502;10.030;2023-04-25T12:44:27;50.16;43.05;76.95;;
77729;Laerm;68312;53.502;10.030;2023-04-25T12:46:52;50.64;45.23;65.47;;
77729;Laerm;68312;53.502;10.030;2023-04-25T12:49:18;51.54;44.86;68.33;;
77729;Laerm;68312;53.502;10.030;2023-04-25T12:51:43;49.63;43.42;61.77;;
77729;Laerm;68312;53.502;10.030;2023-04-25T12:54:09;52.13;42.36;75.83;;
77729;Laerm;68312;53.502;10.030;2023-04-25T12:56:35;51.06;42.80;76.14;;
77729;Laerm;68312;53.502;10.030;2023-04-25T12:59:01;47.98;42.65;63.19;;
77729;Laerm;68312;53.502;10.030;2023-04-25T13:01:27;51.38;43.87;65.91;;
77729;Laerm;68312;53.502;10.030;2023-04-25T13:03:53;55.39;44.72;75.24;;
77729;Laerm;68312;53.502;10.030;2023-04-25T13:06:20;50.36;45.27;61.05;;
77729;Laerm;68312;53.502;10.030;2023-04-25T13:08:46;55.53;47.64;67.74;;
77729;Laerm;68312;53.502;10.030;2023-04-25T13:11:12;52.76;45.71;70.47;;
77729;Laerm;68312;53.502;10.030;2023-04-25T13:13:38;56.48;46.46;70.88;;
77729;Laerm;68312;53.502;10.030;2023-04-25T13:16:05;54.06;47.96;59.82;;
77729;Laerm;68312;53.502;10.030;2023-04-25T13:18:31;50.47;43.89;57.41;;
77729;Laerm;68312;53.502;10.030;2023-04-25T13:20:58;51.38;44.58;65.50;;
77729;Laerm;68312;53.502;10.030;2023-04-25T13:23:28;50.93;44.18;66.25;;
77729;Laerm;68312;53.502;10.030;2023-04-25T13:25:55;59.62;51.79;80.81;;
77729;Laerm;68312;53.502;10.030;2023-04-25T13:28:21;59.20;50.18;73.32;;
77729;Laerm;68312;53.502;10.030;2023-04-25T13:30:47;54.46;48.98;70.92;;
77729;Laerm;68312;53.502;10.030;2023-04-25T13:33:12;54.04;46.28;68.19;;
77729;Laerm;68312;53.502;10.030;2023-04-25T13:35:38;53.11;45.64;70.24;;